Time;durP1;ratioP1;P1;durP2;ratioP2;P2;SDS_P1;SDS_P2;PMS_P1;PMS_P2;Temp;Humidity;BMP_temperature;BMP_pressure;BME280_temperature;BME280_humidity;BME280_pressure;Samples;Min_cycle;Max_cycle;Signal;HPM_P1;HPM_P2
2022/01/21 00:01:38;;;;;;;10.10;5.63;;;;;;;3.65;73.70;96586.75;5114195;28;21021;-36
2022/01/21 00:04:07;;;;;;;11.27;5.83;;;;;;;3.62;73.56;96603.72;5114567;28;20453;-33
2022/01/21 00:06:35;;;;;;;9.70;5.10;;;;;;;3.53;74.96;96604.91;5114216;28;20434;-34
2022/01/21 00:09:02;;;;;;;18.33;6.60;;;;;;;3.52;74.58;96616.41;5114215;28;20951;-35
2022/01/21 00:11:31;;;;;;;7.27;5.27;;;;;;;3.50;74.94;96618.41;5114004;28;20950;-36
2022/01/21 00:13:58;;;;;;;8.73;5.23;;;;;;;3.45;76.88;96626.88;5114088;28;20438;-33
2022/01/21 00:16:27;;;;;;;11.23;5.03;;;;;;;3.26;76.68;96596.91;5114470;28;20464;-34
2022/01/21 00:19:00;;;;;;;11.27;4.57;;;;;;;3.39;77.80;96624.22;5114554;28;20446;-36
2022/01/21 00:32:35;;;;;;;5.40;4.83;;;;;;;3.41;79.76;96640.59;5051691;28;20455;-34
2022/01/21 00:35:02;;;;;;;12.43;5.83;;;;;;;3.42;79.90;96626.44;5051284;28;20433;-36
2022/01/21 00:37:30;;;;;;;8.67;6.17;;;;;;;3.40;80.86;96639.78;5051391;28;20811;-36
2022/01/21 00:39:59;;;;;;;6.60;4.70;;;;;;;3.35;82.05;96662.34;5051020;28;20492;-34
2022/01/21 00:45:15;;;;;;;12.33;4.53;;;;;;;3.32;82.77;96644.38;5051709;28;20408;-36
2022/01/21 00:47:43;;;;;;;5.50;4.90;;;;;;;3.40;82.71;96660.78;5050878;28;20880;-36
2022/01/21 00:50:11;;;;;;;5.37;4.17;;;;;;;3.36;83.19;96664.78;5051072;28;20436;-33
2022/01/21 00:52:39;;;;;;;6.80;4.63;;;;;;;3.36;83.29;96664.78;5051057;28;20535;-33
2022/01/21 00:55:08;;;;;;;7.50;4.60;;;;;;;3.40;83.10;96665.19;5051042;28;20449;-34
2022/01/21 00:57:37;;;;;;;6.30;5.43;;;;;;;3.39;84.42;96666.22;5051013;28;20444;-36
2022/01/21 01:00:06;;;;;;;7.60;5.43;;;;;;;3.41;84.60;96672.06;5057906;28;20474;-34
2022/01/21 01:02:33;;;;;;;10.53;4.57;;;;;;;3.41;85.25;96672.06;5093744;28;20445;-34
2022/01/21 01:05:01;;;;;;;6.93;4.77;;;;;;;3.31;86.81;96668.97;5097317;28;20438;-33
2022/01/21 01:07:28;;;;;;;8.70;5.60;;;;;;;3.32;87.55;96668.81;5097207;28;20445;-34
2022/01/21 01:09:57;;;;;;;7.00;5.10;;;;;;;3.30;87.40;96667.38;5097403;28;20439;-35
2022/01/21 01:12:38;;;;;;;7.33;5.47;;;;;;;3.28;87.69;96678.88;5097040;28;20450;-34
2022/01/21 01:20:40;;;;;;;8.23;5.60;;;;;;;3.18;90.32;96673.13;5079550;28;20541;-37
2022/01/21 01:23:20;;;;;;;11.33;5.43;;;;;;;3.20;90.47;96680.81;5096979;28;20809;-36
2022/01/21 01:28:33;;;;;;;6.50;4.70;;;;;;;3.12;91.81;96678.34;5097268;28;20406;-36
2022/01/21 01:31:02;;;;;;;5.47;4.30;;;;;;;3.11;92.26;96687.22;5097147;28;20821;-34
2022/01/21 01:33:35;;;;;;;9.43;3.87;;;;;;;3.11;93.11;96676.75;5096816;28;20439;-33
2022/01/21 01:36:03;;;;;;;10.67;5.50;;;;;;;3.01;93.68;96682.31;5096777;28;20480;-33
2022/01/21 01:41:17;;;;;;;17.30;6.40;;;;;;;2.95;94.53;96683.09;5089265;28;20486;-36
2022/01/21 01:49:28;;;;;;;3.33;2.13;;;;;;;2.77;95.37;96671.25;5110476;28;20599;-34
2022/01/21 01:51:56;;;;;;;5.03;3.17;;;;;;;2.71;94.98;96661.53;5116852;28;20445;-34
2022/01/21 01:54:23;;;;;;;3.93;2.50;;;;;;;2.74;95.29;96666.38;5116768;28;20441;-33
2022/01/21 01:56:53;;;;;;;6.67;3.70;;;;;;;2.74;95.32;96676.06;5116708;28;20555;-37
2022/01/21 01:59:21;;;;;;;3.40;2.40;;;;;;;2.67;95.19;96678.63;5116908;28;20434;-36
2022/01/21 02:01:55;;;;;;;3.73;3.43;;;;;;;2.41;96.07;96651.19;5117251;28;20627;-35
2022/01/21 02:04:22;;;;;;;4.47;2.90;;;;;;;2.59;95.95;96669.09;5116537;28;20902;-33
2022/01/21 02:06:50;;;;;;;2.70;2.43;;;;;;;2.60;95.63;96669.88;5116493;28;20434;-35
2022/01/21 02:09:17;;;;;;;2.40;2.00;;;;;;;2.55;95.93;96674.91;5116416;28;20934;-34
2022/01/21 02:11:44;;;;;;;2.00;1.90;;;;;;;2.51;95.71;96661.34;5116394;28;20447;-35
2022/01/21 02:14:15;;;;;;;2.23;2.03;;;;;;;2.52;95.15;96667.41;5115674;28;20446;-38
2022/01/21 02:17:08;;;;;;;2.60;1.40;;;;;;;2.57;94.34;96665.03;5117166;28;20430;-36
2022/01/21 02:22:33;;;;;;;6.53;2.60;;;;;;;2.55;94.16;96677.53;5053685;28;20996;-33
2022/01/21 02:25:15;;;;;;;1.93;1.50;;;;;;;2.55;94.30;96667.03;5053546;28;20453;-35
2022/01/21 02:27:43;;;;;;;3.27;1.80;;;;;;;2.61;93.90;96671.53;5053388;28;20441;-34
2022/01/21 02:30:18;;;;;;;1.47;1.37;;;;;;;2.60;94.42;96680.38;5053262;28;20976;-35
2022/01/21 02:32:47;;;;;;;2.07;1.47;;;;;;;2.59;94.60;96691.88;5053423;28;20440;-36
2022/01/21 02:35:14;;;;;;;1.23;1.10;;;;;;;2.60;94.65;96698.72;5053535;28;20475;-33
2022/01/21 02:37:44;;;;;;;1.37;1.27;;;;;;;2.63;94.65;96703.59;5053165;28;20915;-36
2022/01/21 02:40:13;;;;;;;2.50;1.57;;;;;;;2.62;94.81;96708.03;5053343;28;20471;-36
2022/01/21 02:42:40;;;;;;;1.37;1.27;;;;;;;2.55;95.25;96703.72;5053086;28;20488;-35
2022/01/21 02:45:09;;;;;;;1.67;1.57;;;;;;;2.53;94.96;96700.47;5053031;28;20440;-33
2022/01/21 02:47:36;;;;;;;4.57;2.30;;;;;;;2.53;94.98;96700.47;5053017;28;20448;-33
2022/01/21 02:50:05;;;;;;;3.40;1.93;;;;;;;2.54;94.29;96697.69;5053234;28;20441;-33
2022/01/21 02:52:41;;;;;;;1.53;1.40;;;;;;;2.50;94.15;96687.75;5053083;28;20883;-33
2022/01/21 02:55:11;;;;;;;1.50;1.40;;;;;;;2.49;93.56;96673.03;5052936;28;20428;-33
2022/01/21 02:57:38;;;;;;;4.70;1.90;;;;;;;2.57;93.10;96688.63;5052926;28;20460;-33
2022/01/21 03:00:07;;;;;;;3.93;2.13;;;;;;;2.54;92.90;96702.09;5092186;28;20439;-33
2022/01/21 03:02:34;;;;;;;1.23;1.13;;;;;;;2.55;92.23;96696.66;5095277;28;20530;-33
2022/01/21 03:05:05;;;;;;;3.13;2.80;;;;;;;2.55;92.57;96694.06;5095058;28;20439;-33
2022/01/21 03:07:33;;;;;;;1.93;1.70;;;;;;;2.52;92.34;96693.59;5095298;28;20770;-33
2022/01/21 03:10:00;;;;;;;1.87;1.23;;;;;;;2.55;91.77;96714.22;5095252;28;20439;-33
2022/01/21 03:12:29;;;;;;;3.77;1.77;;;;;;;2.43;92.11;96706.84;5094758;28;20486;-33
2022/01/21 03:14:56;;;;;;;1.57;1.33;;;;;;;2.43;92.15;96712.09;5095098;28;20443;-35
2022/01/21 03:17:23;;;;;;;1.23;1.10;;;;;;;2.36;92.35;96705.97;5094832;28;20449;-33
2022/01/21 03:19:50;;;;;;;4.87;1.77;;;;;;;2.32;93.40;96704.72;5094706;28;20438;-33
2022/01/21 03:22:18;;;;;;;2.17;1.60;;;;;;;2.27;93.76;96707.09;5094646;28;20486;-37
2022/01/21 03:24:45;;;;;;;1.90;1.70;;;;;;;2.23;94.47;96701.38;5094555;28;20804;-34
2022/01/21 03:27:12;;;;;;;2.00;1.90;;;;;;;2.22;94.59;96694.53;5094487;28;20441;-33
2022/01/21 03:29:41;;;;;;;4.03;2.03;;;;;;;2.20;94.98;96706.22;5094540;28;20844;-33
2022/01/21 03:32:09;;;;;;;1.20;1.10;;;;;;;2.23;94.99;96697.97;5094409;28;20443;-34
2022/01/21 03:34:36;;;;;;;4.33;1.60;;;;;;;2.27;94.61;96695.81;5094651;28;20446;-33
2022/01/21 03:37:04;;;;;;;2.57;2.13;;;;;;;2.20;94.92;96707.00;5094656;28;20463;-35
2022/01/21 03:39:31;;;;;;;5.23;3.43;;;;;;;2.24;94.83;96710.88;5094420;28;20443;-33
2022/01/21 03:41:58;;;;;;;2.23;1.87;;;;;;;2.21;95.34;96713.06;5094187;28;20486;-38
2022/01/21 03:44:25;;;;;;;2.47;1.90;;;;;;;2.21;95.80;96719.09;5094693;28;20443;-36
2022/01/21 03:46:54;;;;;;;8.13;3.97;;;;;;;2.12;96.51;96724.66;5094101;28;20481;-35
2022/01/21 03:49:21;;;;;;;5.20;2.23;;;;;;;2.05;97.06;96725.38;5109227;28;20477;-36
2022/01/21 03:51:49;;;;;;;1.70;1.23;;;;;;;2.01;96.76;96724.13;5114496;28;20449;-33
2022/01/21 03:54:16;;;;;;;8.87;3.17;;;;;;;1.89;98.42;96725.59;5114381;28;20488;-33
2022/01/21 03:56:43;;;;;;;4.33;3.37;;;;;;;1.90;98.48;96732.47;5114361;28;20900;-34
2022/01/21 03:59:10;;;;;;;4.23;2.53;;;;;;;1.91;98.13;96734.06;5114266;28;20449;-33
2022/01/21 04:01:38;;;;;;;5.30;2.60;;;;;;;1.93;98.28;96753.03;5114560;28;20608;-33
2022/01/21 04:04:06;;;;;;;5.10;2.77;;;;;;;1.94;98.07;96744.19;5114077;28;20441;-33
2022/01/21 04:06:34;;;;;;;2.60;2.50;;;;;;;1.95;98.25;96751.03;5114496;28;20813;-33
2022/01/21 04:09:01;;;;;;;2.60;2.20;;;;;;;1.96;98.17;96760.53;5114125;28;20456;-33
2022/01/21 04:11:28;;;;;;;1.70;1.60;;;;;;;1.96;98.25;96763.16;5114078;28;20452;-35
2022/01/21 04:13:55;;;;;;;2.00;1.80;;;;;;;2.02;98.05;96785.16;5114051;28;20844;-33
2022/01/21 04:16:23;;;;;;;2.40;2.20;;;;;;;2.02;98.26;96785.16;5114317;28;20454;-37
2022/01/21 04:18:50;;;;;;;2.17;1.60;;;;;;;2.01;98.38;96788.78;5114452;28;20441;-34
2022/01/21 04:21:19;;;;;;;3.40;1.57;;;;;;;2.03;98.27;96778.94;5113942;28;20482;-33
2022/01/21 04:23:47;;;;;;;3.30;2.13;;;;;;;1.98;98.65;96779.50;5113932;28;20453;-33
2022/01/21 04:26:14;;;;;;;3.43;2.77;;;;;;;2.01;98.39;96776.50;5114017;28;20438;-34
2022/01/21 04:28:41;;;;;;;3.00;2.17;;;;;;;1.97;98.40;96793.56;5113769;28;20452;-33
2022/01/21 04:31:08;;;;;;;7.50;2.90;;;;;;;1.96;98.65;96799.00;5114192;28;20469;-33
2022/01/21 04:33:36;;;;;;;3.40;3.10;;;;;;;1.96;98.81;96799.00;5114215;28;20798;-33
2022/01/21 04:36:04;;;;;;;4.57;2.00;;;;;;;1.95;98.82;96807.84;5113844;28;20448;-32
2022/01/21 04:38:32;;;;;;;9.57;4.87;;;;;;;1.88;99.29;96799.91;5113346;28;20434;-33
2022/01/21 04:41:06;;;;;;;13.93;6.20;;;;;;;1.89;99.44;96801.53;5113670;28;20449;-33
2022/01/21 04:49:02;;;;;;;7.73;3.87;;;;;;;1.86;99.78;96820.22;5114039;28;20465;-34
2022/01/21 04:51:37;;;;;;;3.47;2.53;;;;;;;1.80;99.99;96816.50;5113705;28;20499;-35
2022/01/21 04:54:06;;;;;;;2.87;2.47;;;;;;;1.80;99.88;96821.75;5113943;28;20418;-36
2022/01/21 04:56:34;;;;;;;1.90;1.80;;;;;;;1.79;99.83;96816.72;5114027;28;20442;-35
2022/01/21 04:59:02;;;;;;;3.10;2.57;;;;;;;1.75;100.00;96829.34;5113894;28;20442;-34
2022/01/21 05:01:29;;;;;;;3.00;2.27;;;;;;;1.78;100.00;96828.16;5113691;28;20841;-33
2022/01/21 05:03:57;;;;;;;2.20;1.97;;;;;;;1.74;100.00;96822.50;5113571;28;20442;-34
2022/01/21 05:06:24;;;;;;;4.07;2.93;;;;;;;1.75;100.00;96829.34;5113499;28;20438;-33
2022/01/21 05:08:54;;;;;;;4.10;3.50;;;;;;;1.67;100.00;96831.22;5113856;28;20446;-33
2022/01/21 05:11:23;;;;;;;4.20;2.57;;;;;;;1.51;100.00;96817.31;5113458;28;20450;-32
2022/01/21 05:13:56;;;;;;;15.40;3.93;;;;;;;1.67;100.00;96849.53;5113547;28;20438;-33
2022/01/21 05:16:33;;;;;;;3.70;2.53;;;;;;;1.60;100.00;96852.06;5113449;28;20433;-33
2022/01/21 05:19:05;;;;;;;3.80;2.20;;;;;;;1.59;100.00;96856.50;5113796;28;20441;-32
2022/01/21 05:21:32;;;;;;;3.50;2.13;;;;;;;1.59;99.26;96848.63;5113353;28;20466;-33
2022/01/21 05:23:59;;;;;;;1.87;1.50;;;;;;;1.53;98.74;96862.44;5113575;28;20449;-33
2022/01/21 05:26:35;;;;;;;2.67;2.47;;;;;;;1.48;97.46;96859.50;5113678;28;20815;-33
2022/01/21 05:29:03;;;;;;;2.23;2.03;;;;;;;1.44;96.47;96855.63;5113764;28;20437;-33
2022/01/21 05:31:30;;;;;;;5.20;2.70;;;;;;;1.42;96.08;96861.06;5113062;28;20457;-33
2022/01/21 05:33:57;;;;;;;3.87;2.57;;;;;;;1.42;95.79;96873.34;5113523;28;20844;-33
2022/01/21 05:36:26;;;;;;;6.43;3.47;;;;;;;1.27;96.12;96859.38;5113542;28;20476;-33
2022/01/21 05:38:54;;;;;;;26.43;12.40;;;;;;;1.38;96.44;96885.13;5113439;28;20477;-33
2022/01/21 05:41:23;;;;;;;3.33;2.70;;;;;;;1.36;96.21;96881.88;5113149;28;20952;-38
2022/01/21 05:44:00;;;;;;;6.10;3.50;;;;;;;1.34;96.16;96889.09;5113211;28;20437;-36
2022/01/21 05:46:40;;;;;;;7.87;3.53;;;;;;;1.33;95.19;96897.91;5113232;28;20909;-36
2022/01/21 05:49:07;;;;;;;3.80;2.83;;;;;;;1.33;95.39;96897.91;5112904;28;20489;-35
2022/01/21 05:51:35;;;;;;;3.83;2.17;;;;;;;1.21;95.81;96895.72;5116918;28;20914;-33
2022/01/21 05:54:02;;;;;;;4.00;2.30;;;;;;;1.19;95.89;96902.91;5116919;28;20440;-34
2022/01/21 05:56:31;;;;;;;3.67;3.10;;;;;;;1.18;95.94;96901.31;5116612;28;20521;-34
2022/01/21 05:59:00;;;;;;;7.27;3.40;;;;;;;1.18;96.18;96913.53;5116982;28;20530;-35
2022/01/21 06:01:27;;;;;;;16.83;3.90;;;;;;;1.15;95.59;96906.88;5116944;28;20608;-38
2022/01/21 06:03:55;;;;;;;12.03;6.20;;;;;;;1.20;95.31;96904.53;5116893;28;20452;-38
2022/01/21 06:06:22;;;;;;;11.23;4.97;;;;;;;1.14;95.97;96909.66;5116791;28;20459;-39
2022/01/21 06:08:49;;;;;;;6.30;4.27;;;;;;;1.09;96.04;96904.94;5116718;28;20430;-38
2022/01/21 06:11:16;;;;;;;5.63;4.70;;;;;;;1.12;95.59;96903.78;5116750;28;20446;-36
2022/01/21 06:13:46;;;;;;;10.60;4.73;;;;;;;1.16;94.78;96918.13;5116397;28;20846;-35
2022/01/21 06:16:15;;;;;;;4.03;2.53;;;;;;;1.23;93.75;96909.44;5116388;28;20438;-38
2022/01/21 06:18:43;;;;;;;4.37;2.70;;;;;;;1.26;92.82;96928.38;5116053;28;20438;-35
2022/01/21 06:21:10;;;;;;;4.87;4.37;;;;;;;1.27;93.28;96930.00;5116469;28;20790;-35
2022/01/21 06:23:38;;;;;;;7.30;4.60;;;;;;;1.14;93.93;96905.25;5116261;28;20489;-35
2022/01/21 06:26:05;;;;;;;7.87;5.03;;;;;;;1.33;95.20;96931.91;5117039;28;20438;-35
2022/01/21 06:28:32;;;;;;;7.93;6.57;;;;;;;1.36;96.34;96919.31;5116012;28;20537;-36
2022/01/21 06:30:59;;;;;;;16.03;8.57;;;;;;;1.39;97.16;96934.66;5116040;28;20530;-35
2022/01/21 06:33:28;;;;;;;70.70;30.60;;;;;;;1.24;97.72;96915.47;5115937;28;20446;-36
2022/01/21 06:35:56;;;;;;;90.53;39.93;;;;;;;1.38;98.11;96937.47;5116231;28;20831;-36
2022/01/21 06:38:24;;;;;;;32.20;16.30;;;;;;;1.29;98.30;96917.56;5115870;28;20515;-35
2022/01/21 06:40:51;;;;;;;8.50;6.13;;;;;;;1.36;98.83;96955.13;5115692;28;20534;-36
2022/01/21 06:43:19;;;;;;;7.90;5.53;;;;;;;1.35;98.90;96943.03;5115718;28;20486;-35
2022/01/21 06:45:46;;;;;;;5.73;4.70;;;;;;;1.35;99.44;96946.44;5115994;28;20442;-35
2022/01/21 06:48:14;;;;;;;12.07;5.67;;;;;;;1.35;99.46;96940.41;5115421;28;20473;-35
2022/01/21 06:50:44;;;;;;;7.03;5.50;;;;;;;1.36;99.56;96944.66;5115718;28;20448;-35
2022/01/21 06:53:11;;;;;;;8.17;5.23;;;;;;;1.33;98.85;96947.63;5115911;28;20839;-37
2022/01/21 06:55:39;;;;;;;5.23;4.33;;;;;;;1.31;98.71;96937.34;5115620;28;20481;-35
2022/01/21 06:58:07;;;;;;;10.30;5.47;;;;;;;1.23;98.34;96938.19;5115751;28;20449;-37
2022/01/21 07:00:34;;;;;;;22.97;8.40;;;;;;;1.07;97.88;96920.00;5115277;28;20461;-36
2022/01/21 07:03:01;;;;;;;25.27;8.90;;;;;;;1.19;97.40;96950.00;5115327;28;20481;-36
2022/01/21 07:05:29;;;;;;;12.87;6.47;;;;;;;1.18;97.23;96951.00;5115502;28;20438;-38
2022/01/21 07:07:59;;;;;;;16.70;9.30;;;;;;;1.18;97.33;96956.22;5115316;28;20442;-34
2022/01/21 07:10:27;;;;;;;30.13;11.00;;;;;;;1.18;96.98;96953.63;5115381;28;20450;-35
2022/01/21 07:12:54;;;;;;;39.10;17.50;;;;;;;1.20;96.73;96962.06;5115407;28;20520;-35
2022/01/21 07:15:22;;;;;;;23.13;11.37;;;;;;;1.19;96.14;96951.81;5115058;28;20448;-36
2022/01/21 07:17:52;;;;;;;18.27;10.30;;;;;;;1.19;96.29;96954.41;5115004;28;20437;-35
2022/01/21 07:20:20;;;;;;;16.70;8.57;;;;;;;1.27;95.91;96950.91;5115178;28;20430;-35
2022/01/21 07:22:47;;;;;;;24.27;11.67;;;;;;;1.27;95.68;96950.91;5114775;28;20492;-35
2022/01/21 07:25:16;;;;;;;30.00;12.80;;;;;;;1.28;95.15;96942.09;5115161;28;20442;-35
2022/01/21 07:27:45;;;;;;;14.77;10.23;;;;;;;1.30;94.84;96946.16;5114822;28;20491;-36
2022/01/21 07:30:13;;;;;;;22.20;9.87;;;;;;;1.34;94.11;96946.66;5115162;28;20782;-35
2022/01/21 07:32:41;;;;;;;33.57;15.80;;;;;;;1.38;93.41;96937.47;5115039;28;20795;-35
2022/01/21 07:35:09;;;;;;;36.50;16.17;;;;;;;1.41;92.52;96947.56;5115062;28;20465;-34
2022/01/21 07:37:37;;;;;;;41.77;16.40;;;;;;;1.45;92.08;96959.31;5114600;28;20529;-35
2022/01/21 07:40:05;;;;;;;23.53;9.70;;;;;;;1.48;91.74;96958.16;5114631;28;20546;-36
2022/01/21 07:42:34;;;;;;;24.80;11.47;;;;;;;1.50;91.54;96954.34;5114526;28;20512;-35
2022/01/21 07:45:02;;;;;;;21.20;12.13;;;;;;;1.51;90.84;96956.00;5114544;28;20495;-35
2022/01/21 07:47:29;;;;;;;16.10;7.60;;;;;;;1.52;90.35;96956.81;5114398;28;20442;-35
2022/01/21 07:49:57;;;;;;;18.20;8.93;;;;;;;1.52;90.01;96964.66;5114208;28;20473;-35
2022/01/21 07:52:24;;;;;;;6.30;4.50;;;;;;;1.50;89.53;96962.22;5114282;28;20456;-35
2022/01/21 07:54:51;;;;;;;32.23;10.30;;;;;;;1.50;88.97;96967.44;5114436;28;20449;-35
2022/01/21 07:57:19;;;;;;;16.07;7.50;;;;;;;1.49;89.04;96970.25;5114321;28;20453;-36
2022/01/21 07:59:47;;;;;;;11.23;5.23;;;;;;;1.48;88.57;96977.28;5114357;28;20909;-35
2022/01/21 08:02:14;;;;;;;16.13;6.33;;;;;;;1.45;87.65;96975.00;5114467;28;20482;-35
2022/01/21 08:04:42;;;;;;;5.23;3.70;;;;;;;1.45;88.04;96974.22;5114262;28;20445;-35
2022/01/21 08:07:10;;;;;;;6.93;4.10;;;;;;;1.45;87.93;96974.22;5114230;28;20441;-35
2022/01/21 08:09:37;;;;;;;11.70;9.23;;;;;;;1.41;88.19;96978.97;5114149;28;20967;-34
2022/01/21 08:12:06;;;;;;;6.50;4.80;;;;;;;1.47;87.29;96980.88;5113573;28;20807;-35
2022/01/21 08:14:33;;;;;;;15.83;5.10;;;;;;;1.50;87.25;96988.38;5114301;28;20444;-35
2022/01/21 08:17:02;;;;;;;4.57;4.27;;;;;;;1.52;86.96;96996.06;5114021;28;20498;-35
2022/01/21 08:19:29;;;;;;;10.00;5.73;;;;;;;1.56;84.96;96987.69;5113958;28;20446;-35
2022/01/21 08:21:57;;;;;;;33.30;16.23;;;;;;;1.54;80.64;96989.66;5113992;28;20439;-35
2022/01/21 08:24:24;;;;;;;20.13;11.97;;;;;;;1.61;79.09;96995.84;5114001;28;20623;-35
2022/01/21 08:26:51;;;;;;;12.10;9.23;;;;;;;1.62;79.09;96992.22;5113961;28;20529;-34
2022/01/21 08:29:18;;;;;;;13.47;9.80;;;;;;;1.66;77.05;96997.09;5113927;28;20441;-35
2022/01/21 08:31:46;;;;;;;5.50;3.73;;;;;;;1.72;77.40;96992.00;5113822;28;20466;-37
2022/01/21 08:34:15;;;;;;;6.07;2.50;;;;;;;1.62;78.79;96976.53;5114216;28;20525;-35
2022/01/21 08:36:43;;;;;;;4.30;3.13;;;;;;;1.84;80.05;97003.66;5114181;28;20445;-35
2022/01/21 08:39:13;;;;;;;4.53;3.90;;;;;;;1.85;79.65;97004.50;5114197;28;20465;-35
2022/01/21 08:41:40;;;;;;;5.40;4.90;;;;;;;1.82;79.00;96987.31;5113454;28;20442;-35
2022/01/21 08:44:07;;;;;;;13.80;5.40;;;;;;;1.84;79.22;97005.47;5113981;28;20839;-35
2022/01/21 08:46:34;;;;;;;10.30;4.50;;;;;;;1.79;78.75;97002.59;5113962;28;20442;-36
2022/01/21 08:49:07;;;;;;;7.03;3.80;;;;;;;1.79;78.90;96997.34;5113289;28;20473;-35
2022/01/21 08:51:48;;;;;;;8.63;3.87;;;;;;;1.69;77.16;97007.25;5113684;28;20430;-35
2022/01/21 08:54:15;;;;;;;9.73;4.83;;;;;;;1.76;78.22;97008.16;5113656;28;20488;-34
2022/01/21 08:56:43;;;;;;;9.70;6.30;;;;;;;1.71;78.34;97011.31;5113903;28;20517;-35
2022/01/21 08:59:10;;;;;;;16.53;7.60;;;;;;;1.75;77.09;97003.91;5113568;28;20449;-34
2022/01/21 09:01:37;;;;;;;5.43;3.47;;;;;;;1.74;77.36;97005.72;5114135;28;20929;-37
2022/01/21 09:04:05;;;;;;;5.23;3.10;;;;;;;1.71;75.96;97000.03;5113377;28;21018;-35
2022/01/21 09:06:32;;;;;;;3.10;2.77;;;;;;;1.70;75.96;97004.44;5113470;28;20929;-34
2022/01/21 09:09:02;;;;;;;13.27;5.33;;;;;;;1.76;75.56;97008.16;5113445;28;20505;-34
2022/01/21 09:11:29;;;;;;;36.17;11.73;;;;;;;1.78;75.75;97008.78;5113755;28;20521;-34
2022/01/21 09:13:57;;;;;;;24.73;11.03;;;;;;;1.79;75.54;97019.09;5113409;28;20438;-35
2022/01/21 09:16:25;;;;;;;23.97;9.67;;;;;;;1.75;75.11;97006.53;5113425;28;20964;-37
2022/01/21 09:18:55;;;;;;;26.37;8.97;;;;;;;1.69;74.54;96988.91;5113321;28;20441;-36
2022/01/21 09:21:24;;;;;;;16.77;6.43;;;;;;;1.86;74.15;97000.06;5113380;28;20458;-35
2022/01/21 09:23:52;;;;;;;21.70;8.73;;;;;;;1.85;72.98;97004.50;5114517;28;20833;-35
2022/01/21 09:26:23;;;;;;;37.13;12.80;;;;;;;1.91;72.59;96995.91;5117290;28;20438;-35
2022/01/21 09:28:52;;;;;;;36.07;14.03;;;;;;;1.98;71.69;96986.38;5117172;28;20513;-34
2022/01/21 09:31:20;;;;;;;34.80;13.27;;;;;;;1.94;71.48;96985.13;5117199;28;20498;-35
2022/01/21 09:33:48;;;;;;;62.40;22.40;;;;;;;1.95;71.38;96986.72;5116981;28;20541;-34
2022/01/21 09:36:18;;;;;;;34.17;13.53;;;;;;;1.88;70.05;96983.19;5117394;28;20449;-35
2022/01/21 09:38:45;;;;;;;39.27;12.03;;;;;;;1.91;68.09;96979.41;5117231;28;20442;-37
2022/01/21 09:41:13;;;;;;;50.30;16.07;;;;;;;1.94;69.20;96984.31;5117334;28;20850;-34
2022/01/21 09:43:53;;;;;;;20.93;9.17;;;;;;;1.94;66.18;96973.84;5116815;28;20489;-35
2022/01/21 09:46:26;;;;;;;4.23;3.10;;;;;;;2.03;63.30;96967.53;5116969;28;20909;-37
2022/01/21 09:49:05;;;;;;;2.77;1.90;;;;;;;2.10;60.86;96967.63;5116547;28;20474;-37
2022/01/21 09:51:33;;;;;;;3.17;1.80;;;;;;;2.11;57.29;96953.50;5116831;28;20913;-35
2022/01/21 09:54:02;;;;;;;3.70;2.07;;;;;;;2.17;58.35;96958.03;5116680;28;20437;-35
2022/01/21 09:56:30;;;;;;;2.27;1.90;;;;;;;2.16;59.13;96951.19;5116699;28;20921;-36
2022/01/21 09:59:01;;;;;;;5.10;3.87;;;;;;;2.31;61.55;96938.09;5116586;28;20473;-35
2022/01/21 10:01:28;;;;;;;11.13;5.27;;;;;;;2.33;64.45;96936.94;5116660;28;20434;-35
2022/01/21 10:03:56;;;;;;;27.53;8.77;;;;;;;2.38;66.28;96939.00;5116734;28;20573;-35
2022/01/21 10:06:25;;;;;;;14.03;7.00;;;;;;;2.38;65.30;96929.31;5116887;28;20442;-37
2022/01/21 10:08:56;;;;;;;15.23;6.50;;;;;;;2.44;66.61;96928.59;5116512;28;20517;-35
2022/01/21 10:11:23;;;;;;;13.10;5.60;;;;;;;2.47;66.18;96919.56;5116496;28;20438;-35
2022/01/21 10:13:51;;;;;;;7.37;3.67;;;;;;;2.50;65.73;96928.88;5116309;28;20453;-38
2022/01/21 10:16:20;;;;;;;13.37;6.10;;;;;;;2.52;65.95;96925.09;5116283;28;20477;-35
2022/01/21 10:19:07;;;;;;;12.63;4.30;;;;;;;2.50;64.03;96919.22;5116544;28;20438;-38
2022/01/21 10:21:36;;;;;;;2.57;2.37;;;;;;;2.43;63.14;96900.78;5116200;28;20517;-35
2022/01/21 10:24:08;;;;;;;7.33;3.00;;;;;;;2.51;63.72;96904.28;5116052;28;20511;-36
2022/01/21 10:26:46;;;;;;;3.93;2.50;;;;;;;2.49;64.19;96920.19;5116076;28;20810;-35
2022/01/21 10:29:13;;;;;;;4.10;2.60;;;;;;;2.51;62.93;96906.91;5116080;28;20437;-35
2022/01/21 10:31:52;;;;;;;7.00;4.43;;;;;;;2.39;62.95;96877.75;5116008;28;20438;-36
2022/01/21 10:34:28;;;;;;;12.10;4.70;;;;;;;2.58;62.92;96889.44;5116187;28;20436;-36
2022/01/21 10:37:03;;;;;;;2.90;2.33;;;;;;;2.61;61.55;96891.72;5115077;28;20436;-35
2022/01/21 10:39:32;;;;;;;5.47;2.50;;;;;;;2.67;61.83;96891.81;5115971;28;20440;-37
2022/01/21 10:42:00;;;;;;;7.80;3.13;;;;;;;2.71;62.05;96900.13;5115847;28;20947;-38
2022/01/21 10:44:30;;;;;;;10.47;3.60;;;;;;;2.75;61.82;96898.72;5115729;28;20492;-36
2022/01/21 10:47:08;;;;;;;5.43;3.37;;;;;;;2.70;61.05;96885.38;5115628;28;20473;-35
2022/01/21 10:49:39;;;;;;;6.60;3.17;;;;;;;2.87;61.91;96896.47;5115348;28;20651;-36
2022/01/21 10:52:09;;;;;;;3.67;2.20;;;;;;;2.90;61.28;96882.16;5115642;28;20906;-35
2022/01/21 10:54:42;;;;;;;2.60;2.40;;;;;;;2.99;62.25;96886.28;5115853;28;20519;-36
2022/01/21 10:57:14;;;;;;;6.60;2.47;;;;;;;3.06;57.64;96892.44;5115825;28;20430;-35
2022/01/21 10:59:54;;;;;;;4.87;1.30;;;;;;;3.11;57.52;96900.53;5115918;28;20438;-35
2022/01/21 11:02:35;;;;;;;1.27;1.17;;;;;;;3.08;55.58;96877.31;5115592;28;20430;-35
2022/01/21 11:05:06;;;;;;;2.40;1.00;;;;;;;3.10;55.02;96890.22;5115389;28;20557;-38
2022/01/21 11:07:56;;;;;;;1.90;1.53;;;;;;;2.99;54.93;96868.75;5115716;28;20430;-35
2022/01/21 11:10:47;;;;;;;3.93;1.53;;;;;;;3.11;55.00;96897.91;5115596;28;20435;-34
2022/01/21 11:13:36;;;;;;;1.90;1.33;;;;;;;3.18;55.36;96890.91;5115179;28;20446;-35
2022/01/21 11:16:17;;;;;;;1.53;1.43;;;;;;;3.15;55.20;96878.19;5115159;28;20434;-38
2022/01/21 11:19:07;;;;;;;4.10;2.03;;;;;;;3.20;56.20;96883.66;5115056;28;20944;-35
2022/01/21 11:21:58;;;;;;;7.50;3.90;;;;;;;3.06;55.97;96872.25;5115129;28;20483;-35
2022/01/21 11:24:27;;;;;;;3.17;2.83;;;;;;;2.99;56.36;96874.00;5110311;28;20490;-37
2022/01/21 11:27:16;;;;;;;1.60;1.50;;;;;;;3.01;56.23;96872.00;5114909;28;20450;-35
2022/01/21 11:29:46;;;;;;;3.10;2.20;;;;;;;3.05;57.08;96891.63;5109687;28;20538;-36
2022/01/21 11:32:14;;;;;;;5.77;1.60;;;;;;;2.96;56.80;96876.16;5115149;28;20836;-35
2022/01/21 11:34:43;;;;;;;5.33;3.60;;;;;;;2.96;56.54;96874.34;5114769;28;20527;-37
2022/01/21 11:37:11;;;;;;;10.10;5.40;;;;;;;3.05;56.85;96883.75;5114755;28;20434;-35
2022/01/21 11:39:38;;;;;;;18.00;7.70;;;;;;;3.05;56.57;96883.75;5114742;28;20526;-36
2022/01/21 11:42:07;;;;;;;3.73;2.80;;;;;;;3.10;57.17;96875.31;5114918;28;20537;-35
2022/01/21 11:44:38;;;;;;;36.77;18.17;;;;;;;3.00;56.99;96890.53;5114538;28;20496;-35
2022/01/21 11:47:27;;;;;;;5.53;3.13;;;;;;;3.02;57.07;96875.44;5114553;28;20487;-36
2022/01/21 11:49:59;;;;;;;7.53;5.33;;;;;;;2.93;55.51;96889.66;5114331;28;20501;-35
2022/01/21 11:52:27;;;;;;;5.10;3.10;;;;;;;2.89;56.07;96876.09;5114498;28;20913;-35
2022/01/21 11:54:54;;;;;;;12.40;6.77;;;;;;;2.86;56.18;96893.03;5114366;28;20455;-36
2022/01/21 11:57:32;;;;;;;2.80;2.57;;;;;;;2.82;55.45;96889.16;5114755;28;20499;-35
2022/01/21 12:00:05;;;;;;;8.93;5.80;;;;;;;2.77;56.08;96886.25;5114276;28;20433;-36
2022/01/21 12:02:35;;;;;;;32.53;10.53;;;;;;;2.76;56.08;96886.44;5114277;28;20426;-34
2022/01/21 12:05:07;;;;;;;19.70;8.27;;;;;;;2.70;55.27;96885.38;5114138;28;20474;-36
2022/01/21 12:07:49;;;;;;;10.20;6.57;;;;;;;2.67;56.69;96885.75;5114574;28;20480;-35
2022/01/21 12:10:29;;;;;;;18.23;8.60;;;;;;;2.62;55.99;96883.69;5114185;28;20427;-35
2022/01/21 12:13:04;;;;;;;21.23;6.63;;;;;;;2.43;56.55;96884.22;5114431;28;20877;-38
2022/01/21 12:19:20;;;;;;;21.53;9.40;;;;;;;2.28;57.26;96876.41;5109434;28;20441;-36
2022/01/21 12:21:51;;;;;;;6.50;3.60;;;;;;;2.18;57.18;96871.41;5113891;28;20529;-36
2022/01/21 12:24:51;;;;;;;29.13;12.80;;;;;;;2.27;58.19;96872.13;5113964;28;20899;-35
2022/01/21 12:27:19;;;;;;;28.63;14.20;;;;;;;2.29;58.80;96878.00;5113994;28;20434;-35
2022/01/21 12:29:46;;;;;;;13.80;7.47;;;;;;;2.30;58.74;96874.38;5113867;28;20445;-36
2022/01/21 12:32:20;;;;;;;11.83;5.37;;;;;;;2.34;58.73;96864.38;5114190;28;20445;-36